Time;durP1;ratioP1;P1;durP2;ratioP2;P2;SDS_P1;SDS_P2;PMS_P1;PMS_P2;Temp;Humidity;BMP_temperature;BMP_pressure;BME280_temperature;BME280_humidity;BME280_pressure;Samples;Min_cycle;Max_cycle;Signal;HPM_P1;HPM_P2
2021/12/20 00:00:19;;;;;;;19.63;17.70;;;;;;;-141.48;100.00;69781.59;5226399;28;20116;-84
2021/12/20 00:02:56;;;;;;;19.52;17.95;;;;;;;-141.48;100.00;69781.59;5215982;28;20028;-84
2021/12/20 00:11:33;;;;;;;17.77;16.02;;;;;;;-141.48;100.00;69781.59;5594092;22;20049;-84
2021/12/20 00:14:04;;;;;;;23.35;18.30;;;;;;;-141.48;100.00;69781.59;5210355;28;20107;-85
2021/12/20 00:16:49;;;;;;;19.05;17.23;;;;;;;-141.48;100.00;69781.59;5213816;28;20025;-85
2021/12/20 00:19:54;;;;;;;16.90;15.50;;;;;;;-141.48;100.00;69781.59;5237372;22;20038;-84
2021/12/20 00:22:24;;;;;;;18.08;16.35;;;;;;;-141.48;100.00;69781.59;5187231;28;20025;-84
2021/12/20 00:24:54;;;;;;;21.63;14.88;;;;;;;-141.48;100.00;69781.59;5213745;28;20045;-84
2021/12/20 00:27:25;;;;;;;17.42;15.48;;;;;;;-141.48;100.00;69781.59;5196664;28;20033;-83
2021/12/20 00:33:22;;;;;;;17.98;15.60;;;;;;;-141.48;100.00;69781.59;5234966;28;20328;-84
2021/12/20 00:35:52;;;;;;;16.75;15.35;;;;;;;-141.48;100.00;69781.59;5234750;28;20048;-84
2021/12/20 00:44:39;;;;;;;19.77;17.48;;;;;;;-141.48;100.00;69781.59;5233418;28;20403;-84
2021/12/20 00:47:09;;;;;;;20.30;16.25;;;;;;;-141.48;100.00;69781.59;5217341;28;20032;-85
2021/12/20 00:55:00;;;;;;;16.70;15.15;;;;;;;-141.48;100.00;69781.59;5253608;22;20050;-84
2021/12/20 00:57:31;;;;;;;22.58;15.85;;;;;;;-141.48;100.00;69781.59;5195792;28;20022;-84
2021/12/20 01:00:06;;;;;;;16.35;14.95;;;;;;;-141.48;100.00;69781.59;5226071;28;20052;-84
2021/12/20 01:06:04;;;;;;;14.40;13.10;;;;;;;-141.48;100.00;69781.59;5234721;28;20498;-84
2021/12/20 01:11:09;;;;;;;16.65;15.38;;;;;;;-141.48;100.00;69781.59;5352729;22;20053;-82
2021/12/20 01:13:41;;;;;;;16.10;14.48;;;;;;;-141.48;100.00;69781.59;5183026;28;20480;-84
2021/12/20 01:16:13;;;;;;;21.98;16.48;;;;;;;-141.48;100.00;69781.59;5193571;28;20029;-84
2021/12/20 01:18:43;;;;;;;18.67;16.85;;;;;;;-141.48;100.00;69781.59;5177294;28;20029;-85
2021/12/20 01:21:14;;;;;;;23.95;13.98;;;;;;;-141.48;100.00;69781.59;5196106;28;20044;-85
2021/12/20 01:23:44;;;;;;;19.63;16.58;;;;;;;-141.48;100.00;69781.59;5216119;28;20036;-84
2021/12/20 01:26:14;;;;;;;17.67;15.18;;;;;;;-141.48;100.00;69781.59;5214022;28;20073;-84
2021/12/20 01:34:05;;;;;;;18.52;15.32;;;;;;;-141.48;100.00;69781.59;5496634;22;20090;-84
2021/12/20 01:40:05;;;;;;;15.02;14.02;;;;;;;-141.48;100.00;69781.59;5206317;28;20040;-83
2021/12/20 01:42:36;;;;;;;14.05;12.90;;;;;;;-141.48;100.00;69781.59;5219279;28;20032;-83
2021/12/20 01:48:39;;;;;;;13.88;12.00;;;;;;;-141.48;100.00;69781.59;5223528;28;20632;-83
2021/12/20 01:53:46;;;;;;;20.00;12.32;;;;;;;-141.48;100.00;69781.59;5218295;28;20043;-83
2021/12/20 02:11:10;;;;;;;11.25;9.68;;;;;;;-141.48;100.00;69781.59;5693062;22;20108;-84
2021/12/20 02:14:24;;;;;;;9.75;9.10;;;;;;;-141.48;100.00;69781.59;5211210;28;20030;-84
2021/12/20 02:16:54;;;;;;;13.88;10.40;;;;;;;-141.48;100.00;69781.59;5230593;28;20052;-83
2021/12/20 02:19:26;;;;;;;9.35;8.75;;;;;;;-141.48;100.00;69781.59;5209765;28;20025;-84
2021/12/20 02:21:57;;;;;;;12.55;8.82;;;;;;;-141.48;100.00;69781.59;5223018;22;20421;-57
2021/12/20 02:27:55;;;;;;;9.32;8.45;;;;;;;-141.48;100.00;69781.59;5209340;28;20160;-57
2021/12/20 02:30:41;;;;;;;8.50;7.75;;;;;;;-141.48;100.00;69781.59;5198595;28;20027;-58
2021/12/20 02:39:22;;;;;;;12.40;8.93;;;;;;;-141.48;100.00;69781.59;5446191;22;20041;-84
2021/12/20 02:41:56;;;;;;;6.40;5.90;;;;;;;-141.48;100.00;69781.59;5198833;28;20029;-85
2021/12/20 02:44:28;;;;;;;7.13;6.63;;;;;;;-141.48;100.00;69781.59;5217231;28;20368;-83
2021/12/20 02:49:29;;;;;;;8.32;7.05;;;;;;;-141.48;100.00;69781.59;5216583;28;20041;-85
2021/12/20 02:52:06;;;;;;;5.45;4.93;;;;;;;-141.48;100.00;69781.59;5216657;28;20033;-85
2021/12/20 03:03:16;;;;;;;4.97;4.55;;;;;;;-141.48;100.00;69781.59;5469679;22;20054;-84
2021/12/20 03:05:56;;;;;;;11.27;7.25;;;;;;;-141.48;100.00;69781.59;5210707;28;20028;-84
2021/12/20 03:11:11;;;;;;;13.68;5.78;;;;;;;-141.48;100.00;69781.59;5442107;22;20499;-86
2021/12/20 03:13:47;;;;;;;13.02;6.25;;;;;;;-141.48;100.00;69781.59;5178643;28;20034;-85
2021/12/20 03:16:18;;;;;;;5.53;4.82;;;;;;;-141.48;100.00;69781.59;5178365;28;20045;-87
2021/12/20 03:18:49;;;;;;;30.38;6.45;;;;;;;-141.48;100.00;69781.59;5179460;28;20087;-86
2021/12/20 03:21:20;;;;;;;7.45;5.57;;;;;;;-141.48;100.00;69781.59;5198252;28;20043;-85
2021/12/20 03:23:51;;;;;;;5.15;4.75;;;;;;;-141.48;100.00;69781.59;5198111;28;20032;-85
2021/12/20 03:26:21;;;;;;;16.17;6.85;;;;;;;-141.48;100.00;69781.59;5198215;28;20022;-85
2021/12/20 03:28:52;;;;;;;8.45;5.88;;;;;;;-141.48;100.00;69781.59;5198133;28;20028;-86
2021/12/20 03:31:23;;;;;;;10.77;5.60;;;;;;;-141.48;100.00;69781.59;5197475;28;20038;-84
2021/12/20 03:33:54;;;;;;;7.53;5.47;;;;;;;-141.48;100.00;69781.59;5214684;28;20060;-85
2021/12/20 03:36:24;;;;;;;18.63;5.05;;;;;;;-141.48;100.00;69781.59;5214891;28;20017;-84
2021/12/20 03:38:54;;;;;;;6.70;5.20;;;;;;;-141.48;100.00;69781.59;5197391;28;20549;-84
2021/12/20 03:41:25;;;;;;;8.35;5.75;;;;;;;-141.48;100.00;69781.59;5197054;28;20033;-85
2021/12/20 03:43:56;;;;;;;7.05;5.10;;;;;;;-141.48;100.00;69781.59;5214777;28;20040;-84
2021/12/20 03:46:26;;;;;;;9.75;5.38;;;;;;;-141.48;100.00;69781.59;5196982;28;20048;-85
2021/12/20 03:48:57;;;;;;;9.73;5.75;;;;;;;-141.48;100.00;69781.59;5197008;28;20092;-85
2021/12/20 03:51:28;;;;;;;10.32;5.47;;;;;;;-141.48;100.00;69781.59;5214453;28;20021;-85
2021/12/20 03:53:58;;;;;;;10.63;6.55;;;;;;;-141.48;100.00;69781.59;5214632;28;20029;-85
2021/12/20 03:56:29;;;;;;;4.70;4.40;;;;;;;-141.48;100.00;69781.59;5214705;28;20112;-83
2021/12/20 03:59:00;;;;;;;14.20;6.40;;;;;;;-141.48;100.00;69781.59;5196833;28;20025;-85
2021/12/20 04:01:31;;;;;;;6.38;5.82;;;;;;;-141.48;100.00;69781.59;5214931;28;20399;-84
2021/12/20 04:04:02;;;;;;;9.52;6.18;;;;;;;-141.48;100.00;69781.59;5213631;28;20032;-85
2021/12/20 04:06:35;;;;;;;5.82;5.18;;;;;;;-141.48;100.00;69781.59;5197320;28;20418;-84
2021/12/20 04:09:05;;;;;;;14.13;5.82;;;;;;;-141.48;100.00;69781.59;5214878;28;20073;-81
2021/12/20 04:11:36;;;;;;;14.70;5.65;;;;;;;-141.48;100.00;69781.59;5214424;28;20104;-85
2021/12/20 04:14:06;;;;;;;8.68;5.65;;;;;;;-141.48;100.00;69781.59;5214269;28;20049;-84
2021/12/20 04:16:37;;;;;;;10.52;4.43;;;;;;;-141.48;100.00;69781.59;5214331;28;20033;-85
2021/12/20 04:19:07;;;;;;;5.85;5.28;;;;;;;-141.48;100.00;69781.59;5196723;28;20025;-84
2021/12/20 04:21:38;;;;;;;8.02;5.20;;;;;;;-141.48;100.00;69781.59;5196387;28;20025;-85
2021/12/20 04:24:08;;;;;;;14.25;6.38;;;;;;;-141.48;100.00;69781.59;5213661;28;20132;-85
2021/12/20 04:26:39;;;;;;;5.43;5.03;;;;;;;-141.48;100.00;69781.59;5196861;28;20060;-85
2021/12/20 04:29:10;;;;;;;8.07;5.10;;;;;;;-141.48;100.00;69781.59;5196264;28;20026;-85
2021/12/20 04:31:40;;;;;;;12.18;6.88;;;;;;;-141.48;100.00;69781.59;5197439;28;20097;-85
2021/12/20 04:34:11;;;;;;;19.98;5.13;;;;;;;-141.48;100.00;69781.59;5202198;28;20021;-83
2021/12/20 04:36:42;;;;;;;10.07;4.95;;;;;;;-141.48;100.00;69781.59;5213643;28;20021;-85
2021/12/20 04:39:17;;;;;;;6.72;4.22;;;;;;;-141.48;100.00;69781.59;5213912;28;20029;-84
2021/12/20 04:41:47;;;;;;;6.85;4.13;;;;;;;-141.48;100.00;69781.59;5231043;28;20026;-84
2021/12/20 04:44:18;;;;;;;12.02;6.32;;;;;;;-141.48;100.00;69781.59;5230614;28;20026;-84
2021/12/20 04:46:49;;;;;;;11.98;7.05;;;;;;;-141.48;100.00;69781.59;5230595;28;20010;-84
2021/12/20 04:49:19;;;;;;;11.15;5.55;;;;;;;-141.48;100.00;69781.59;5230052;28;20017;-85
2021/12/20 04:51:54;;;;;;;6.88;5.78;;;;;;;-141.48;100.00;69781.59;5213182;28;20043;-85
2021/12/20 04:54:25;;;;;;;12.95;4.40;;;;;;;-141.48;100.00;69781.59;5213262;28;20101;-84
2021/12/20 04:56:56;;;;;;;23.13;5.32;;;;;;;-141.48;100.00;69781.59;5230807;28;20064;-84
2021/12/20 04:59:26;;;;;;;14.23;6.30;;;;;;;-141.48;100.00;69781.59;5230220;28;20010;-84
2021/12/20 05:01:57;;;;;;;10.93;5.90;;;;;;;-141.48;100.00;69781.59;5230378;28;20029;-83
2021/12/20 05:04:27;;;;;;;7.32;5.75;;;;;;;-141.48;100.00;69781.59;5230257;28;20028;-84
2021/12/20 05:06:57;;;;;;;6.78;5.53;;;;;;;-141.48;100.00;69781.59;5230618;28;20017;-84
2021/12/20 05:09:35;;;;;;;10.80;4.90;;;;;;;-141.48;100.00;69781.59;5213190;28;20032;-84
2021/12/20 05:12:12;;;;;;;8.23;5.47;;;;;;;-141.48;100.00;69781.59;5212927;28;20022;-86
2021/12/20 05:14:44;;;;;;;16.67;5.72;;;;;;;-141.48;100.00;69781.59;5223474;28;20018;-84
2021/12/20 05:17:14;;;;;;;6.95;5.68;;;;;;;-141.48;100.00;69781.59;5224069;28;20039;-85
2021/12/20 05:19:45;;;;;;;11.65;4.80;;;;;;;-141.48;100.00;69781.59;5223126;28;20089;-85
2021/12/20 05:22:15;;;;;;;12.25;6.63;;;;;;;-141.48;100.00;69781.59;5214195;28;20029;-85
2021/12/20 05:24:46;;;;;;;9.90;6.32;;;;;;;-141.48;100.00;69781.59;5211332;28;20037;-86
2021/12/20 05:27:16;;;;;;;17.23;6.25;;;;;;;-141.48;100.00;69781.59;5192744;28;20087;-86
2021/12/20 05:29:48;;;;;;;5.65;5.13;;;;;;;-141.48;100.00;69781.59;5192621;28;20071;-86
2021/12/20 05:32:18;;;;;;;11.20;6.53;;;;;;;-141.48;100.00;69781.59;5209770;28;20028;-86
2021/12/20 05:34:49;;;;;;;25.13;5.75;;;;;;;-141.48;100.00;69781.59;5209668;28;20387;-87
2021/12/20 05:37:19;;;;;;;9.88;4.80;;;;;;;-141.48;100.00;69781.59;5214562;28;20052;-86
2021/12/20 05:39:50;;;;;;;11.93;6.82;;;;;;;-141.48;100.00;69781.59;5235595;28;20035;-87
2021/12/20 05:42:20;;;;;;;7.25;5.47;;;;;;;-141.48;100.00;69781.59;5229794;28;20475;-87
2021/12/20 05:44:51;;;;;;;14.75;7.40;;;;;;;-141.48;100.00;69781.59;5229193;28;20017;-87
2021/12/20 05:47:22;;;;;;;7.57;4.40;;;;;;;-141.48;100.00;69781.59;5211433;28;20021;-86
2021/12/20 05:49:53;;;;;;;6.68;4.88;;;;;;;-141.48;100.00;69781.59;5230064;28;20387;-87
2021/12/20 05:52:23;;;;;;;18.15;7.10;;;;;;;-141.48;100.00;69781.59;5214754;28;20032;-86
2021/12/20 05:54:54;;;;;;;8.13;6.03;;;;;;;-141.48;100.00;69781.59;5231138;28;20433;-86
2021/12/20 05:57:24;;;;;;;14.55;6.20;;;;;;;-141.48;100.00;69781.59;5212245;28;20025;-87
2021/12/20 05:59:54;;;;;;;14.88;4.75;;;;;;;-141.48;100.00;69781.59;5229286;28;20033;-86
2021/12/20 06:02:25;;;;;;;14.35;6.47;;;;;;;-141.48;100.00;69781.59;5229355;28;20028;-87
2021/12/20 06:04:55;;;;;;;7.40;4.50;;;;;;;-141.48;100.00;69781.59;5228857;28;20033;-86
2021/12/20 06:07:25;;;;;;;14.10;6.00;;;;;;;-141.48;100.00;69781.59;5229611;28;20087;-87
2021/12/20 06:09:56;;;;;;;9.02;5.28;;;;;;;-141.48;100.00;69781.59;5229420;28;20036;-86
2021/12/20 06:12:27;;;;;;;9.68;5.80;;;;;;;-141.48;100.00;69781.59;5211628;28;20021;-88
2021/12/20 06:14:57;;;;;;;10.38;6.03;;;;;;;-141.48;100.00;69781.59;5228345;28;20059;-87
2021/12/20 06:17:27;;;;;;;8.75;4.55;;;;;;;-141.48;100.00;69781.59;5228858;28;20048;-87
2021/12/20 06:19:58;;;;;;;12.60;5.45;;;;;;;-141.48;100.00;69781.59;5229195;28;20032;-88
2021/12/20 06:22:28;;;;;;;7.13;4.97;;;;;;;-141.48;100.00;69781.59;5211021;28;20441;-87
2021/12/20 06:24:59;;;;;;;19.15;5.97;;;;;;;-141.48;100.00;69781.59;5210114;28;20067;-87
2021/12/20 06:27:29;;;;;;;5.32;4.60;;;;;;;-141.48;100.00;69781.59;5228191;28;20024;-87
2021/12/20 06:30:00;;;;;;;4.75;4.35;;;;;;;-141.48;100.00;69781.59;5210630;28;20100;-87
2021/12/20 06:32:30;;;;;;;14.00;6.70;;;;;;;-141.48;100.00;69781.59;5228822;28;20029;-87
2021/12/20 06:35:01;;;;;;;9.25;5.90;;;;;;;-141.48;100.00;69781.59;5210317;28;20230;-87
2021/12/20 06:37:32;;;;;;;6.35;4.78;;;;;;;-141.48;100.00;69781.59;5210645;28;20402;-87
2021/12/20 06:40:04;;;;;;;9.52;5.10;;;;;;;-141.48;100.00;69781.59;5211104;28;20056;-86
2021/12/20 06:42:37;;;;;;;7.40;4.47;;;;;;;-141.48;100.00;69781.59;5233621;28;20039;-85
2021/12/20 06:45:08;;;;;;;9.07;4.35;;;;;;;-141.48;100.00;69781.59;5219439;28;20086;-85
2021/12/20 06:47:39;;;;;;;19.10;8.77;;;;;;;-141.48;100.00;69781.59;5219858;28;20029;-85
2021/12/20 06:50:09;;;;;;;15.88;5.72;;;;;;;-141.48;100.00;69781.59;5237151;28;20032;-85
2021/12/20 06:52:40;;;;;;;6.20;5.60;;;;;;;-141.48;100.00;69781.59;5219069;28;20029;-85
2021/12/20 06:55:10;;;;;;;14.30;5.72;;;;;;;-141.48;100.00;69781.59;5218426;28;20044;-85
2021/12/20 06:57:41;;;;;;;11.63;5.13;;;;;;;-141.48;100.00;69781.59;5236390;28;20021;-85
2021/12/20 07:00:12;;;;;;;18.30;6.25;;;;;;;-141.48;100.00;69781.59;5217980;28;20028;-85
2021/12/20 07:02:42;;;;;;;13.35;6.32;;;;;;;-141.48;100.00;69781.59;5237093;28;20017;-85
2021/12/20 07:05:12;;;;;;;18.25;9.45;;;;;;;-141.48;100.00;69781.59;5228458;28;20533;-86
2021/12/20 07:07:43;;;;;;;19.75;6.45;;;;;;;-141.48;100.00;69781.59;5208235;28;20052;-86
2021/12/20 07:10:13;;;;;;;7.15;5.22;;;;;;;-141.48;100.00;69781.59;5209812;28;20049;-86
2021/12/20 07:12:44;;;;;;;9.90;5.47;;;;;;;-141.48;100.00;69781.59;5228114;28;20021;-86
2021/12/20 07:15:15;;;;;;;12.77;6.78;;;;;;;-141.48;100.00;69781.59;5210072;28;20021;-86
2021/12/20 07:17:45;;;;;;;17.10;6.47;;;;;;;-141.48;100.00;69781.59;5228496;28;20028;-86
2021/12/20 07:20:16;;;;;;;13.75;7.80;;;;;;;-141.48;100.00;69781.59;5210489;28;20116;-86
2021/12/20 07:22:46;;;;;;;16.67;6.93;;;;;;;-141.48;100.00;69781.59;5210358;28;20047;-85
2021/12/20 07:25:19;;;;;;;10.98;6.32;;;;;;;-141.48;100.00;69781.59;5227999;28;20021;-86
2021/12/20 07:27:50;;;;;;;8.15;6.43;;;;;;;-141.48;100.00;69781.59;5209962;28;20032;-86
2021/12/20 07:30:21;;;;;;;16.00;6.97;;;;;;;-141.48;100.00;69781.59;5227803;28;20084;-85
2021/12/20 07:32:51;;;;;;;13.25;7.03;;;;;;;-141.48;100.00;69781.59;5210103;28;20112;-86
2021/12/20 07:35:22;;;;;;;17.48;7.38;;;;;;;-141.48;100.00;69781.59;5209732;28;20020;-85
2021/12/20 07:37:56;;;;;;;16.52;8.32;;;;;;;-141.48;100.00;69781.59;5210403;28;20094;-84
2021/12/20 07:40:27;;;;;;;19.50;7.40;;;;;;;-141.48;100.00;69781.59;5226850;28;20028;-85
2021/12/20 07:42:57;;;;;;;13.05;6.50;;;;;;;-141.48;100.00;69781.59;5210470;28;20025;-86
2021/12/20 07:45:27;;;;;;;8.07;6.15;;;;;;;-141.48;100.00;69781.59;5228021;28;20028;-85
2021/12/20 07:47:58;;;;;;;12.02;5.85;;;;;;;-141.48;100.00;69781.59;5230052;28;20021;-86
2021/12/20 07:50:30;;;;;;;14.50;6.93;;;;;;;-141.48;100.00;69781.59;5228040;28;20028;-86
2021/12/20 07:53:01;;;;;;;33.85;8.15;;;;;;;-141.48;100.00;69781.59;5227898;28;20042;-86
2021/12/20 07:55:31;;;;;;;14.38;6.93;;;;;;;-141.48;100.00;69781.59;5209296;28;20108;-86
2021/12/20 07:58:02;;;;;;;9.90;5.68;;;;;;;-141.48;100.00;69781.59;5209824;28;20498;-86
2021/12/20 08:00:32;;;;;;;11.27;7.15;;;;;;;-141.48;100.00;69781.59;5211669;28;20063;-86
2021/12/20 08:03:03;;;;;;;9.13;8.10;;;;;;;-141.48;100.00;69781.59;5210132;28;20020;-86
2021/12/20 08:05:33;;;;;;;8.52;7.35;;;;;;;-141.48;100.00;69781.59;5227269;28;20037;-86
2021/12/20 08:08:05;;;;;;;17.83;6.63;;;;;;;-141.48;100.00;69781.59;5210175;28;20020;-86
2021/12/20 08:10:35;;;;;;;10.77;6.43;;;;;;;-141.48;100.00;69781.59;5227850;28;20036;-88
2021/12/20 08:13:07;;;;;;;8.63;6.78;;;;;;;-141.48;100.00;69781.59;5229679;28;20028;-85
2021/12/20 08:15:37;;;;;;;16.30;8.50;;;;;;;-141.48;100.00;69781.59;5229811;28;20044;-85
2021/12/20 08:18:07;;;;;;;25.90;9.07;;;;;;;-141.48;100.00;69781.59;5211941;28;20021;-86
2021/12/20 08:20:38;;;;;;;12.23;7.47;;;;;;;-141.48;100.00;69781.59;5229652;28;20032;-87
2021/12/20 08:23:09;;;;;;;22.63;7.85;;;;;;;-141.48;100.00;69781.59;5231693;28;20447;-86
2021/12/20 08:25:39;;;;;;;20.33;8.30;;;;;;;-141.48;100.00;69781.59;5210205;28;20053;-86
2021/12/20 08:28:10;;;;;;;16.42;7.15;;;;;;;-141.48;100.00;69781.59;5211134;28;20079;-85
2021/12/20 08:30:40;;;;;;;11.30;7.40;;;;;;;-141.48;100.00;69781.59;5209979;28;20540;-86
2021/12/20 08:33:12;;;;;;;21.50;8.98;;;;;;;-141.48;100.00;69781.59;5210177;28;20068;-85
2021/12/20 08:35:42;;;;;;;13.90;7.22;;;;;;;-141.48;100.00;69781.59;5209826;28;20063;-85
2021/12/20 08:38:13;;;;;;;19.00;9.50;;;;;;;-141.48;100.00;69781.59;5227956;28;20052;-86
2021/12/20 08:40:44;;;;;;;7.45;5.60;;;;;;;-141.48;100.00;69781.59;5210309;28;20027;-86
2021/12/20 08:43:16;;;;;;;9.07;7.22;;;;;;;-141.48;100.00;69781.59;5210226;28;20025;-86
2021/12/20 08:45:47;;;;;;;12.63;7.78;;;;;;;-141.48;100.00;69781.59;5210282;28;20112;-86
2021/12/20 08:48:17;;;;;;;14.23;6.55;;;;;;;-141.48;100.00;69781.59;5227995;28;20548;-87
2021/12/20 08:50:48;;;;;;;17.38;7.75;;;;;;;-141.48;100.00;69781.59;5213652;28;20210;-87
2021/12/20 08:53:18;;;;;;;11.80;7.05;;;;;;;-141.48;100.00;69781.59;5231292;28;20028;-87
2021/12/20 08:55:49;;;;;;;23.90;7.22;;;;;;;-141.48;100.00;69781.59;5229450;28;20013;-86
2021/12/20 08:58:19;;;;;;;23.10;7.35;;;;;;;-141.48;100.00;69781.59;5229329;28;20075;-86
2021/12/20 09:00:50;;;;;;;9.07;6.72;;;;;;;-141.48;100.00;69781.59;5214314;28;20064;-86
2021/12/20 09:03:22;;;;;;;23.55;7.63;;;;;;;-141.48;100.00;69781.59;5236238;28;20021;-87
2021/12/20 09:05:52;;;;;;;21.00;7.53;;;;;;;-141.48;100.00;69781.59;5236018;28;20025;-86
2021/12/20 09:08:23;;;;;;;16.92;6.88;;;;;;;-141.48;100.00;69781.59;5212287;28;20453;-86
2021/12/20 09:10:53;;;;;;;21.13;8.00;;;;;;;-141.48;100.00;69781.59;5227131;28;20021;-86
2021/12/20 09:13:24;;;;;;;26.77;7.45;;;;;;;-141.48;100.00;69781.59;5226886;28;20083;-86
2021/12/20 09:15:59;;;;;;;20.42;8.10;;;;;;;-141.48;100.00;69781.59;5228426;28;20025;-87
2021/12/20 09:18:29;;;;;;;8.18;7.35;;;;;;;-141.48;100.00;69781.59;5227449;28;20376;-86
2021/12/20 09:21:00;;;;;;;17.70;7.82;;;;;;;-141.48;100.00;69781.59;5228720;28;20087;-87
2021/12/20 09:23:32;;;;;;;19.95;6.13;;;;;;;-141.48;100.00;69781.59;5227062;28;20051;-85
2021/12/20 09:26:03;;;;;;;15.43;7.63;;;;;;;-141.48;100.00;69781.59;5210364;28;20029;-87
2021/12/20 09:28:34;;;;;;;10.80;5.55;;;;;;;-141.48;100.00;69781.59;5209683;28;20025;-85
2021/12/20 09:31:06;;;;;;;10.27;6.10;;;;;;;-141.48;100.00;69781.59;5209728;28;20029;-85
2021/12/20 09:33:36;;;;;;;13.20;6.13;;;;;;;-141.48;100.00;69781.59;5227972;28;20025;-86
2021/12/20 09:36:06;;;;;;;13.00;7.88;;;;;;;-141.48;100.00;69781.59;5209720;28;20021;-86
2021/12/20 09:38:37;;;;;;;13.75;7.70;;;;;;;-141.48;100.00;69781.59;5209244;28;20506;-86
2021/12/20 09:43:43;;;;;;;13.15;8.85;;;;;;;-141.48;100.00;69781.59;5226826;28;20077;-86
2021/12/20 09:46:16;;;;;;;15.48;8.20;;;;;;;-141.48;100.00;69781.59;5209262;28;20036;-86
2021/12/20 09:48:49;;;;;;;17.70;7.32;;;;;;;-141.48;100.00;69781.59;5228049;28;20067;-85
2021/12/20 09:51:20;;;;;;;22.38;7.43;;;;;;;-141.48;100.00;69781.59;5232542;28;20029;-86
2021/12/20 09:53:52;;;;;;;12.90;7.82;;;;;;;-141.48;100.00;69781.59;5216405;28;20079;-86
2021/12/20 09:56:25;;;;;;;15.93;6.93;;;;;;;-141.48;100.00;69781.59;5214191;28;20017;-87
2021/12/20 09:58:58;;;;;;;10.32;6.72;;;;;;;-141.48;100.00;69781.59;5228564;28;20031;-86
2021/12/20 10:01:29;;;;;;;10.48;6.85;;;;;;;-141.48;100.00;69781.59;5232783;28;20028;-85
2021/12/20 10:04:00;;;;;;;12.35;8.05;;;;;;;-141.48;100.00;69781.59;5200290;28;20021;-85
2021/12/20 10:06:30;;;;;;;24.40;7.75;;;;;;;-141.48;100.00;69781.59;5215280;28;20071;-87
2021/12/20 10:09:10;;;;;;;12.00;6.97;;;;;;;-141.48;100.00;69781.59;5188343;28;20414;-87
2021/12/20 10:11:43;;;;;;;13.60;6.78;;;;;;;-141.48;100.00;69781.59;5191240;28;20021;-87
2021/12/20 10:14:16;;;;;;;11.13;6.75;;;;;;;-141.48;100.00;69781.59;5191079;28;20555;-87
2021/12/20 10:16:47;;;;;;;14.60;5.82;;;;;;;-141.48;100.00;69781.59;5208851;28;20038;-87
2021/12/20 10:19:31;;;;;;;12.25;5.85;;;;;;;-141.48;100.00;69781.59;5208860;28;20044;-87
2021/12/20 10:22:25;;;;;;;14.55;5.70;;;;;;;-141.48;100.00;69781.59;5190805;28;20033;-86
2021/12/20 10:24:57;;;;;;;9.88;6.38;;;;;;;-141.48;100.00;69781.59;5190817;28;20368;-87
2021/12/20 10:27:34;;;;;;;8.40;6.45;;;;;;;-141.48;100.00;69781.59;5190759;28;20200;-87
2021/12/20 10:30:25;;;;;;;21.35;6.43;;;;;;;-141.48;100.00;69781.59;5190902;28;20026;-86
2021/12/20 10:32:56;;;;;;;12.05;6.10;;;;;;;-141.48;100.00;69781.59;5208524;28;20044;-86
2021/12/20 10:35:29;;;;;;;16.27;5.38;;;;;;;-141.48;100.00;69781.59;5207623;28;20502;-86
2021/12/20 10:38:07;;;;;;;5.13;4.25;;;;;;;-141.48;100.00;69781.59;5191365;28;20018;-87
2021/12/20 10:40:46;;;;;;;4.78;4.47;;;;;;;-141.48;100.00;69781.59;5208515;28;20407;-86
2021/12/20 10:43:19;;;;;;;7.03;4.85;;;;;;;-141.48;100.00;69781.59;5190674;28;20021;-87
2021/12/20 10:45:51;;;;;;;6.60;4.88;;;;;;;-141.48;100.00;69781.59;5190920;28;20119;-87
2021/12/20 10:48:31;;;;;;;15.57;6.70;;;;;;;-141.48;100.00;69781.59;5212217;28;20032;-86
2021/12/20 10:51:02;;;;;;;5.32;5.03;;;;;;;-141.48;100.00;69781.59;5210386;28;20384;-86
2021/12/20 10:53:32;;;;;;;8.75;4.38;;;;;;;-141.48;100.00;69781.59;5212015;28;20021;-86
2021/12/20 10:56:04;;;;;;;6.15;4.00;;;;;;;-141.48;100.00;69781.59;5210031;28;20387;-87
2021/12/20 10:58:39;;;;;;;12.43;4.53;;;;;;;-141.48;100.00;69781.59;5190851;28;20033;-87
2021/12/20 11:04:02;;;;;;;4.28;3.97;;;;;;;-141.48;100.00;69781.59;5176195;28;20544;-87
2021/12/20 11:09:20;;;;;;;10.13;4.95;;;;;;;-141.48;100.00;69781.59;5216235;28;20129;-87
2021/12/20 11:11:55;;;;;;;15.95;5.57;;;;;;;-141.48;100.00;69781.59;5217622;28;20029;-86
2021/12/20 11:14:29;;;;;;;9.48;4.55;;;;;;;-141.48;100.00;69781.59;5188780;28;20483;-86
2021/12/20 11:17:02;;;;;;;7.88;3.38;;;;;;;-141.48;100.00;69781.59;5191187;28;20032;-86
2021/12/20 11:19:44;;;;;;;8.27;4.40;;;;;;;-141.48;100.00;69781.59;5212891;28;20017;-86
2021/12/20 11:22:19;;;;;;;15.13;5.30;;;;;;;-141.48;100.00;69781.59;5214215;28;20025;-87
2021/12/20 11:24:51;;;;;;;4.15;3.85;;;;;;;-141.48;100.00;69781.59;5197321;28;20025;-86
2021/12/20 11:27:26;;;;;;;4.75;4.35;;;;;;;-141.48;100.00;69781.59;5194525;28;20022;-87
2021/12/20 11:29:59;;;;;;;7.10;4.32;;;;;;;-141.48;100.00;69781.59;5208364;28;20406;-86
2021/12/20 11:32:30;;;;;;;8.48;3.95;;;;;;;-141.48;100.00;69781.59;5191686;28;20025;-86
2021/12/20 11:35:00;;;;;;;4.53;4.03;;;;;;;-141.48;100.00;69781.59;5201163;28;20028;-86
2021/12/20 11:37:31;;;;;;;16.27;5.40;;;;;;;-141.48;100.00;69781.59;5219356;28;20044;-87
2021/12/20 11:40:06;;;;;;;7.85;5.60;;;;;;;-141.48;100.00;69781.59;5213249;28;20021;-87
2021/12/20 11:42:36;;;;;;;12.57;5.72;;;;;;;-141.48;100.00;69781.59;5213506;28;20276;-87
2021/12/20 11:45:10;;;;;;;12.43;6.40;;;;;;;-141.48;100.00;69781.59;5212638;28;20044;-87
2021/12/20 11:47:50;;;;;;;10.25;4.88;;;;;;;-141.48;100.00;69781.59;5191159;28;20033;-86
2021/12/20 11:50:29;;;;;;;14.43;6.28;;;;;;;-141.48;100.00;69781.59;5190116;28;20056;-87
2021/12/20 11:53:11;;;;;;;4.80;4.33;;;;;;;-141.48;100.00;69781.59;5208362;28;20503;-86
2021/12/20 11:55:53;;;;;;;12.27;5.57;;;;;;;-141.48;100.00;69781.59;5207860;28;20032;-86
2021/12/20 11:58:26;;;;;;;8.80;4.90;;;;;;;-141.48;100.00;69781.59;5209121;28;20021;-87
2021/12/20 12:00:59;;;;;;;4.07;3.70;;;;;;;-141.48;100.00;69781.59;5207871;28;20025;-87
2021/12/20 12:03:32;;;;;;;11.85;4.88;;;;;;;-141.48;100.00;69781.59;5207812;28;20021;-87
2021/12/20 12:06:04;;;;;;;10.93;4.68;;;;;;;-141.48;100.00;69781.59;5207699;28;20104;-86
2021/12/20 12:08:51;;;;;;;4.82;4.40;;;;;;;-141.48;100.00;69781.59;5190162;28;20036;-87
2021/12/20 12:11:24;;;;;;;8.07;3.95;;;;;;;-141.48;100.00;69781.59;5189818;28;20507;-86
2021/12/20 12:14:01;;;;;;;15.25;6.75;;;;;;;-141.48;100.00;69781.59;5206914;28;20460;-87
2021/12/20 12:17:08;;;;;;;14.30;4.20;;;;;;;-141.48;100.00;69781.59;5207058;28;20034;-87
2021/12/20 12:19:52;;;;;;;9.05;4.82;;;;;;;-141.48;100.00;69781.59;5196607;28;20051;-87
2021/12/20 12:22:25;;;;;;;7.95;4.57;;;;;;;-141.48;100.00;69781.59;5189257;28;20029;-87
2021/12/20 12:24:56;;;;;;;10.23;5.22;;;;;;;-141.48;100.00;69781.59;5206745;28;20032;-87
2021/12/20 12:27:29;;;;;;;11.25;4.45;;;;;;;-141.48;100.00;69781.59;5188973;28;20033;-87
2021/12/20 12:30:12;;;;;;;4.95;3.70;;;;;;;-141.48;100.00;69781.59;5207512;28;20025;-87
2021/12/20 12:32:48;;;;;;;4.55;4.00;;;;;;;-141.48;100.00;69781.59;5190640;28;20033;-86
2021/12/20 12:35:38;;;;;;;12.02;6.03;;;;;;;-141.48;100.00;69781.59;5208112;28;20412;-87
2021/12/20 12:38:20;;;;;;;7.07;4.47;;;;;;;-141.48;100.00;69781.59;5207644;28;20507;-87
2021/12/20 12:41:07;;;;;;;5.13;4.60;;;;;;;-141.48;100.00;69781.59;5189286;28;20498;-87
2021/12/20 12:44:06;;;;;;;11.32;5.93;;;;;;;-141.48;100.00;69781.59;5206578;28;20075;-87
2021/12/20 12:46:41;;;;;;;4.47;4.18;;;;;;;-141.48;100.00;69781.59;5188683;28;20025;-87
2021/12/20 12:49:20;;;;;;;9.88;5.22;;;;;;;-141.48;100.00;69781.59;5188533;28;20033;-87
2021/12/20 12:51:51;;;;;;;4.72;4.25;;;;;;;-141.48;100.00;69781.59;5189154;28;20021;-87
2021/12/20 12:54:33;;;;;;;12.07;5.38;;;;;;;-141.48;100.00;69781.59;5206504;28;20165;-87
2021/12/20 12:57:09;;;;;;;4.43;3.60;;;;;;;-141.48;100.00;69781.59;5205811;28;20029;-87